sensor_id;sensor_type;location;lat;lon;timestamp;temperature;humidity
35960;DHT22;22043;50.970;7.192;2022-10-23T00:01:31;14.10;99.90
35960;DHT22;22043;50.970;7.192;2022-10-23T00:04:03;14.10;99.90
35960;DHT22;22043;50.970;7.192;2022-10-23T00:06:31;14.10;99.90
35960;DHT22;22043;50.970;7.192;2022-10-23T00:08:57;14.10;99.90
35960;DHT22;22043;50.970;7.192;2022-10-23T00:11:26;14.10;99.90
35960;DHT22;22043;50.970;7.192;2022-10-23T00:13:54;14.10;99.90
35960;DHT22;22043;50.970;7.192;2022-10-23T00:16:20;14.10;99.90
35960;DHT22;22043;50.970;7.192;2022-10-23T00:18:46;14.10;99.90
35960;DHT22;22043;50.970;7.192;2022-10-23T00:21:14;14.10;99.90
35960;DHT22;22043;50.970;7.192;2022-10-23T00:23:40;14.10;99.90
35960;DHT22;22043;50.970;7.192;2022-10-23T00:26:06;14.00;99.90
35960;DHT22;22043;50.970;7.192;2022-10-23T00:28:33;14.10;99.90
35960;DHT22;22043;50.970;7.192;2022-10-23T00:31:06;14.10;99.90
35960;DHT22;22043;50.970;7.192;2022-10-23T00:33:32;14.00;99.90
35960;DHT22;22043;50.970;7.192;2022-10-23T00:35:58;14.10;99.90
35960;DHT22;22043;50.970;7.192;2022-10-23T00:38:24;14.00;99.90
35960;DHT22;22043;50.970;7.192;2022-10-23T00:40:50;14.00;99.90
35960;DHT22;22043;50.970;7.192;2022-10-23T00:43:18;14.00;99.90
35960;DHT22;22043;50.970;7.192;2022-10-23T00:45:44;14.00;99.90
35960;DHT22;22043;50.970;7.192;2022-10-23T00:48:10;14.00;99.90
35960;DHT22;22043;50.970;7.192;2022-10-23T00:50:36;14.00;99.90
35960;DHT22;22043;50.970;7.192;2022-10-23T00:53:03;14.00;99.90
35960;DHT22;22043;50.970;7.192;2022-10-23T00:55:30;14.00;99.90
35960;DHT22;22043;50.970;7.192;2022-10-23T00:57:56;14.10;99.90
35960;DHT22;22043;50.970;7.192;2022-10-23T01:00:48;14.10;99.90
35960;DHT22;22043;50.970;7.192;2022-10-23T01:03:16;14.10;99.90
35960;DHT22;22043;50.970;7.192;2022-10-23T01:05:49;14.10;99.90
35960;DHT22;22043;50.970;7.192;2022-10-23T01:08:28;14.10;99.90
35960;DHT22;22043;50.970;7.192;2022-10-23T01:14:10;14.10;99.90
35960;DHT22;22043;50.970;7.192;2022-10-23T01:17:15;14.10;99.90
35960;DHT22;22043;50.970;7.192;2022-10-23T01:23:10;14.10;99.90
35960;DHT22;22043;50.970;7.192;2022-10-23T01:28:49;14.10;99.90
35960;DHT22;22043;50.970;7.192;2022-10-23T01:31:27;14.10;99.90
35960;DHT22;22043;50.970;7.192;2022-10-23T01:33:59;14.10;99.90
35960;DHT22;22043;50.970;7.192;2022-10-23T01:36:30;14.10;99.90
35960;DHT22;22043;50.970;7.192;2022-10-23T01:39:03;14.20;99.90
35960;DHT22;22043;50.970;7.192;2022-10-23T01:41:49;14.10;99.90
35960;DHT22;22043;50.970;7.192;2022-10-23T01:44:37;14.20;99.90
35960;DHT22;22043;50.970;7.192;2022-10-23T01:47:08;14.20;99.90
35960;DHT22;22043;50.970;7.192;2022-10-23T01:49:47;14.20;99.90
35960;DHT22;22043;50.970;7.192;2022-10-23T01:52:15;14.20;99.90
35960;DHT22;22043;50.970;7.192;2022-10-23T01:54:44;14.20;99.90
35960;DHT22;22043;50.970;7.192;2022-10-23T01:57:14;14.20;99.90
35960;DHT22;22043;50.970;7.192;2022-10-23T01:59:45;14.20;99.90
35960;DHT22;22043;50.970;7.192;2022-10-23T02:02:12;14.20;99.90
35960;DHT22;22043;50.970;7.192;2022-10-23T02:04:50;14.20;99.90
35960;DHT22;22043;50.970;7.192;2022-10-23T02:07:19;14.20;99.90
35960;DHT22;22043;50.970;7.192;2022-10-23T02:09:46;14.20;99.90
35960;DHT22;22043;50.970;7.192;2022-10-23T02:20:27;14.20;99.90
35960;DHT22;22043;50.970;7.192;2022-10-23T02:23:00;14.20;99.90
35960;DHT22;22043;50.970;7.192;2022-10-23T02:25:32;14.20;99.90
35960;DHT22;22043;50.970;7.192;2022-10-23T02:28:08;14.10;99.90
35960;DHT22;22043;50.970;7.192;2022-10-23T02:30:44;14.10;99.90
35960;DHT22;22043;50.970;7.192;2022-10-23T02:33:12;14.10;99.90
35960;DHT22;22043;50.970;7.192;2022-10-23T02:35:39;14.10;99.90
35960;DHT22;22043;50.970;7.192;2022-10-23T02:38:37;14.10;99.90
35960;DHT22;22043;50.970;7.192;2022-10-23T02:41:36;14.10;99.90
35960;DHT22;22043;50.970;7.192;2022-10-23T02:47:03;14.10;99.90
35960;DHT22;22043;50.970;7.192;2022-10-23T02:49:53;14.10;99.90
35960;DHT22;22043;50.970;7.192;2022-10-23T02:52:29;14.10;99.90
35960;DHT22;22043;50.970;7.192;2022-10-23T02:57:45;14.20;99.90
35960;DHT22;22043;50.970;7.192;2022-10-23T03:00:16;14.10;99.90
35960;DHT22;22043;50.970;7.192;2022-10-23T03:03:01;14.10;99.90
35960;DHT22;22043;50.970;7.192;2022-10-23T03:05:33;14.20;99.90
35960;DHT22;22043;50.970;7.192;2022-10-23T03:08:03;14.20;99.90
35960;DHT22;22043;50.970;7.192;2022-10-23T03:10:29;14.20;99.90
35960;DHT22;22043;50.970;7.192;2022-10-23T03:12:55;14.20;99.90
35960;DHT22;22043;50.970;7.192;2022-10-23T03:15:21;14.10;99.90
35960;DHT22;22043;50.970;7.192;2022-10-23T03:17:48;14.20;99.90
35960;DHT22;22043;50.970;7.192;2022-10-23T03:20:14;14.20;99.90
35960;DHT22;22043;50.970;7.192;2022-10-23T03:22:42;14.20;99.90
35960;DHT22;22043;50.970;7.192;2022-10-23T03:25:09;14.20;99.90
35960;DHT22;22043;50.970;7.192;2022-10-23T03:27:35;14.20;99.90
35960;DHT22;22043;50.970;7.192;2022-10-23T03:30:04;14.20;99.90
35960;DHT22;22043;50.970;7.192;2022-10-23T03:32:32;14.20;99.90
35960;DHT22;22043;50.970;7.192;2022-10-23T03:34:58;14.20;99.90
35960;DHT22;22043;50.970;7.192;2022-10-23T03:37:25;14.20;99.90
35960;DHT22;22043;50.970;7.192;2022-10-23T03:39:50;14.30;99.90
35960;DHT22;22043;50.970;7.192;2022-10-23T03:42:16;14.20;99.90
35960;DHT22;22043;50.970;7.192;2022-10-23T03:44:42;14.20;99.90
35960;DHT22;22043;50.970;7.192;2022-10-23T03:47:08;14.30;99.90
35960;DHT22;22043;50.970;7.192;2022-10-23T03:49:36;14.30;99.90
35960;DHT22;22043;50.970;7.192;2022-10-23T03:52:05;14.30;99.90
35960;DHT22;22043;50.970;7.192;2022-10-23T03:54:31;14.30;99.90
35960;DHT22;22043;50.970;7.192;2022-10-23T03:56:58;14.30;99.90
35960;DHT22;22043;50.970;7.192;2022-10-23T03:59:25;14.20;99.90
35960;DHT22;22043;50.970;7.192;2022-10-23T04:01:51;14.30;99.90
35960;DHT22;22043;50.970;7.192;2022-10-23T04:04:17;14.30;99.90
35960;DHT22;22043;50.970;7.192;2022-10-23T04:06:43;14.20;99.90
35960;DHT22;22043;50.970;7.192;2022-10-23T04:09:09;14.20;99.90
35960;DHT22;22043;50.970;7.192;2022-10-23T04:11:34;14.30;99.90
35960;DHT22;22043;50.970;7.192;2022-10-23T04:14:00;14.30;99.90
35960;DHT22;22043;50.970;7.192;2022-10-23T04:16:26;14.30;99.90
35960;DHT22;22043;50.970;7.192;2022-10-23T04:18:51;14.30;99.90
35960;DHT22;22043;50.970;7.192;2022-10-23T04:21:17;14.20;99.90
35960;DHT22;22043;50.970;7.192;2022-10-23T04:23:43;14.30;99.90
35960;DHT22;22043;50.970;7.192;2022-10-23T04:26:14;14.20;99.90
35960;DHT22;22043;50.970;7.192;2022-10-23T04:28:40;14.20;99.90
35960;DHT22;22043;50.970;7.192;2022-10-23T04:31:06;14.20;99.90
35960;DHT22;22043;50.970;7.192;2022-10-23T04:33:32;14.20;99.90
35960;DHT22;22043;50.970;7.192;2022-10-23T04:35:58;14.20;99.90
35960;DHT22;22043;50.970;7.192;2022-10-23T04:38:23;14.20;99.90
35960;DHT22;22043;50.970;7.192;2022-10-23T04:40:50;14.30;99.90
35960;DHT22;22043;50.970;7.192;2022-10-23T04:43:20;14.20;99.90
35960;DHT22;22043;50.970;7.192;2022-10-23T04:45:47;14.30;99.90
35960;DHT22;22043;50.970;7.192;2022-10-23T04:48:13;14.20;99.90
35960;DHT22;22043;50.970;7.192;2022-10-23T04:51:01;14.20;99.90
35960;DHT22;22043;50.970;7.192;2022-10-23T04:53:47;14.20;99.90
35960;DHT22;22043;50.970;7.192;2022-10-23T04:56:41;14.20;99.90
35960;DHT22;22043;50.970;7.192;2022-10-23T04:59:12;14.20;99.90
35960;DHT22;22043;50.970;7.192;2022-10-23T05:01:39;14.20;99.90
35960;DHT22;22043;50.970;7.192;2022-10-23T05:04:06;14.20;99.90
35960;DHT22;22043;50.970;7.192;2022-10-23T05:06:40;14.20;99.90
35960;DHT22;22043;50.970;7.192;2022-10-23T05:09:34;14.20;99.90
35960;DHT22;22043;50.970;7.192;2022-10-23T05:12:20;14.10;99.90
35960;DHT22;22043;50.970;7.192;2022-10-23T05:14:47;14.20;99.90
35960;DHT22;22043;50.970;7.192;2022-10-23T05:17:25;14.20;99.90
35960;DHT22;22043;50.970;7.192;2022-10-23T05:19:56;14.20;99.90
35960;DHT22;22043;50.970;7.192;2022-10-23T05:22:24;14.20;99.90
35960;DHT22;22043;50.970;7.192;2022-10-23T05:24:53;14.20;99.90
35960;DHT22;22043;50.970;7.192;2022-10-23T05:27:22;14.20;99.90
35960;DHT22;22043;50.970;7.192;2022-10-23T05:29:50;14.20;99.90
35960;DHT22;22043;50.970;7.192;2022-10-23T05:32:18;14.20;99.90
35960;DHT22;22043;50.970;7.192;2022-10-23T05:34:44;14.20;99.90
35960;DHT22;22043;50.970;7.192;2022-10-23T05:37:12;14.20;99.90
35960;DHT22;22043;50.970;7.192;2022-10-23T05:39:39;14.20;99.90
35960;DHT22;22043;50.970;7.192;2022-10-23T05:42:09;14.20;99.90
35960;DHT22;22043;50.970;7.192;2022-10-23T05:44:36;14.20;99.90
35960;DHT22;22043;50.970;7.192;2022-10-23T05:47:28;14.20;99.90
35960;DHT22;22043;50.970;7.192;2022-10-23T05:50:17;14.20;99.90
35960;DHT22;22043;50.970;7.192;2022-10-23T05:53:02;14.20;99.90
35960;DHT22;22043;50.970;7.192;2022-10-23T05:55:32;14.20;99.90
35960;DHT22;22043;50.970;7.192;2022-10-23T05:58:24;14.20;99.90
35960;DHT22;22043;50.970;7.192;2022-10-23T06:01:13;14.20;99.90
35960;DHT22;22043;50.970;7.192;2022-10-23T06:03:58;14.20;99.90
35960;DHT22;22043;50.970;7.192;2022-10-23T06:06:37;14.20;99.90
35960;DHT22;22043;50.970;7.192;2022-10-23T06:09:03;14.20;99.90
35960;DHT22;22043;50.970;7.192;2022-10-23T06:11:31;14.20;99.90
35960;DHT22;22043;50.970;7.192;2022-10-23T06:14:02;14.30;99.90
35960;DHT22;22043;50.970;7.192;2022-10-23T06:16:28;14.20;99.90
35960;DHT22;22043;50.970;7.192;2022-10-23T06:18:54;14.30;99.90
35960;DHT22;22043;50.970;7.192;2022-10-23T06:21:20;14.30;99.90
35960;DHT22;22043;50.970;7.192;2022-10-23T06:23:48;14.20;99.90
35960;DHT22;22043;50.970;7.192;2022-10-23T06:26:30;14.20;99.90
35960;DHT22;22043;50.970;7.192;2022-10-23T06:29:07;14.20;99.90
35960;DHT22;22043;50.970;7.192;2022-10-23T06:31:34;14.20;99.90
35960;DHT22;22043;50.970;7.192;2022-10-23T06:34:01;14.30;99.90
35960;DHT22;22043;50.970;7.192;2022-10-23T06:36:29;14.20;99.90
35960;DHT22;22043;50.970;7.192;2022-10-23T06:39:17;14.30;99.90
35960;DHT22;22043;50.970;7.192;2022-10-23T06:42:10;14.20;99.90
35960;DHT22;22043;50.970;7.192;2022-10-23T06:44:59;14.30;99.90
35960;DHT22;22043;50.970;7.192;2022-10-23T06:47:43;14.30;99.90
35960;DHT22;22043;50.970;7.192;2022-10-23T06:50:38;14.30;99.90
35960;DHT22;22043;50.970;7.192;2022-10-23T06:53:09;14.30;99.90
35960;DHT22;22043;50.970;7.192;2022-10-23T06:55:39;14.20;99.90
35960;DHT22;22043;50.970;7.192;2022-10-23T06:58:06;14.30;99.90
35960;DHT22;22043;50.970;7.192;2022-10-23T07:00:38;14.30;99.90
35960;DHT22;22043;50.970;7.192;2022-10-23T07:03:05;14.30;99.90
35960;DHT22;22043;50.970;7.192;2022-10-23T07:05:33;14.30;99.90
35960;DHT22;22043;50.970;7.192;2022-10-23T07:07:59;14.40;99.90
35960;DHT22;22043;50.970;7.192;2022-10-23T07:10:31;14.30;99.90
35960;DHT22;22043;50.970;7.192;2022-10-23T07:12:59;14.40;99.90
35960;DHT22;22043;50.970;7.192;2022-10-23T07:15:36;14.40;99.90
35960;DHT22;22043;50.970;7.192;2022-10-23T07:18:05;14.40;99.90
35960;DHT22;22043;50.970;7.192;2022-10-23T07:20:47;14.40;99.90
35960;DHT22;22043;50.970;7.192;2022-10-23T07:23:14;14.40;99.90
35960;DHT22;22043;50.970;7.192;2022-10-23T07:25:41;14.40;99.90
35960;DHT22;22043;50.970;7.192;2022-10-23T07:28:07;14.40;99.90
35960;DHT22;22043;50.970;7.192;2022-10-23T07:30:34;14.40;99.90
35960;DHT22;22043;50.970;7.192;2022-10-23T07:33:01;14.40;99.90
35960;DHT22;22043;50.970;7.192;2022-10-23T07:35:38;14.40;99.90
35960;DHT22;22043;50.970;7.192;2022-10-23T07:38:08;14.40;99.90
35960;DHT22;22043;50.970;7.192;2022-10-23T07:40:38;14.50;99.90
35960;DHT22;22043;50.970;7.192;2022-10-23T07:43:07;14.50;99.90
35960;DHT22;22043;50.970;7.192;2022-10-23T07:45:33;14.50;99.90
35960;DHT22;22043;50.970;7.192;2022-10-23T07:48:06;14.50;99.90
35960;DHT22;22043;50.970;7.192;2022-10-23T07:50:50;14.50;99.90
35960;DHT22;22043;50.970;7.192;2022-10-23T07:53:18;14.50;99.90
35960;DHT22;22043;50.970;7.192;2022-10-23T07:55:54;14.50;99.90
35960;DHT22;22043;50.970;7.192;2022-10-23T07:58:23;14.50;99.90
35960;DHT22;22043;50.970;7.192;2022-10-23T08:01:05;14.60;99.90
35960;DHT22;22043;50.970;7.192;2022-10-23T08:03:35;14.60;99.90
35960;DHT22;22043;50.970;7.192;2022-10-23T08:06:01;14.60;99.90
35960;DHT22;22043;50.970;7.192;2022-10-23T08:08:27;14.60;99.90
35960;DHT22;22043;50.970;7.192;2022-10-23T08:10:59;14.60;99.90
35960;DHT22;22043;50.970;7.192;2022-10-23T08:13:30;14.60;99.90
35960;DHT22;22043;50.970;7.192;2022-10-23T08:16:01;14.60;99.90
35960;DHT22;22043;50.970;7.192;2022-10-23T08:18:46;14.60;99.90
35960;DHT22;22043;50.970;7.192;2022-10-23T08:21:15;14.60;99.90
35960;DHT22;22043;50.970;7.192;2022-10-23T08:23:43;14.70;99.90
35960;DHT22;22043;50.970;7.192;2022-10-23T08:26:10;14.70;99.90
35960;DHT22;22043;50.970;7.192;2022-10-23T08:28:35;14.70;99.90
35960;DHT22;22043;50.970;7.192;2022-10-23T08:31:11;14.70;99.90
35960;DHT22;22043;50.970;7.192;2022-10-23T08:33:38;14.70;99.90
35960;DHT22;22043;50.970;7.192;2022-10-23T08:36:05;14.70;99.90
35960;DHT22;22043;50.970;7.192;2022-10-23T08:38:33;14.70;99.90
35960;DHT22;22043;50.970;7.192;2022-10-23T08:41:00;14.80;99.90
35960;DHT22;22043;50.970;7.192;2022-10-23T08:47:27;14.80;99.90
35960;DHT22;22043;50.970;7.192;2022-10-23T08:50:35;14.80;99.90
35960;DHT22;22043;50.970;7.192;2022-10-23T08:53:28;14.80;99.90
35960;DHT22;22043;50.970;7.192;2022-10-23T08:56:05;14.90;99.90
35960;DHT22;22043;50.970;7.192;2022-10-23T08:58:45;14.90;99.90
35960;DHT22;22043;50.970;7.192;2022-10-23T09:01:20;14.90;99.90
35960;DHT22;22043;50.970;7.192;2022-10-23T09:03:48;14.90;99.90
35960;DHT22;22043;50.970;7.192;2022-10-23T09:09:11;15.00;99.90
35960;DHT22;22043;50.970;7.192;2022-10-23T09:11:55;15.00;99.90
35960;DHT22;22043;50.970;7.192;2022-10-23T09:14:55;15.10;99.90
35960;DHT22;22043;50.970;7.192;2022-10-23T09:17:27;15.10;99.90
35960;DHT22;22043;50.970;7.192;2022-10-23T09:20:24;15.10;99.90
35960;DHT22;22043;50.970;7.192;2022-10-23T09:23:14;15.10;99.90
35960;DHT22;22043;50.970;7.192;2022-10-23T09:25:41;15.20;99.90
35960;DHT22;22043;50.970;7.192;2022-10-23T09:28:21;15.10;99.90
35960;DHT22;22043;50.970;7.192;2022-10-23T09:30:47;15.20;99.90
35960;DHT22;22043;50.970;7.192;2022-10-23T09:33:24;15.20;99.90
35960;DHT22;22043;50.970;7.192;2022-10-23T09:41:16;15.30;99.90
35960;DHT22;22043;50.970;7.192;2022-10-23T09:43:42;15.30;99.90
35960;DHT22;22043;50.970;7.192;2022-10-23T09:46:09;15.40;99.90
35960;DHT22;22043;50.970;7.192;2022-10-23T09:48:37;15.40;99.90
35960;DHT22;22043;50.970;7.192;2022-10-23T09:51:17;15.40;99.90
35960;DHT22;22043;50.970;7.192;2022-10-23T09:53:48;15.40;99.90
35960;DHT22;22043;50.970;7.192;2022-10-23T09:56:29;15.50;99.90
35960;DHT22;22043;50.970;7.192;2022-10-23T09:58:58;15.50;99.90
35960;DHT22;22043;50.970;7.192;2022-10-23T10:01:32;15.60;99.90
35960;DHT22;22043;50.970;7.192;2022-10-23T10:04:34;15.60;99.90
35960;DHT22;22043;50.970;7.192;2022-10-23T10:07:02;15.60;99.90
35960;DHT22;22043;50.970;7.192;2022-10-23T10:09:28;15.70;99.90
35960;DHT22;22043;50.970;7.192;2022-10-23T10:11:57;15.70;99.90
35960;DHT22;22043;50.970;7.192;2022-10-23T10:17:32;15.80;99.90
35960;DHT22;22043;50.970;7.192;2022-10-23T10:23:02;15.90;99.90
35960;DHT22;22043;50.970;7.192;2022-10-23T10:28:08;16.00;99.90
35960;DHT22;22043;50.970;7.192;2022-10-23T10:31:05;16.00;99.90
35960;DHT22;22043;50.970;7.192;2022-10-23T10:38:56;16.10;99.90
35960;DHT22;22043;50.970;7.192;2022-10-23T10:41:48;16.10;99.90
35960;DHT22;22043;50.970;7.192;2022-10-23T10:44:40;16.20;99.90
35960;DHT22;22043;50.970;7.192;2022-10-23T10:50:16;16.20;99.90
35960;DHT22;22043;50.970;7.192;2022-10-23T10:53:13;16.20;99.90
35960;DHT22;22043;50.970;7.192;2022-10-23T10:55:43;16.30;99.90
35960;DHT22;22043;50.970;7.192;2022-10-23T11:01:05;16.30;99.90
35960;DHT22;22043;50.970;7.192;2022-10-23T11:06:24;16.30;99.90
35960;DHT22;22043;50.970;7.192;2022-10-23T11:08:52;16.30;99.90
35960;DHT22;22043;50.970;7.192;2022-10-23T11:11:23;16.30;99.90
35960;DHT22;22043;50.970;7.192;2022-10-23T11:13:49;16.40;99.90
35960;DHT22;22043;50.970;7.192;2022-10-23T11:16:26;16.40;99.90
35960;DHT22;22043;50.970;7.192;2022-10-23T11:35:44;16.40;99.90
35960;DHT22;22043;50.970;7.192;2022-10-23T11:38:19;16.40;99.90
35960;DHT22;22043;50.970;7.192;2022-10-23T11:40:55;16.40;99.90
35960;DHT22;22043;50.970;7.192;2022-10-23T11:43:30;16.40;99.90
35960;DHT22;22043;50.970;7.192;2022-10-23T11:46:10;16.40;99.90
35960;DHT22;22043;50.970;7.192;2022-10-23T11:48:39;16.40;99.90
35960;DHT22;22043;50.970;7.192;2022-10-23T11:51:28;16.30;99.90
35960;DHT22;22043;50.970;7.192;2022-10-23T11:54:27;16.30;99.90
35960;DHT22;22043;50.970;7.192;2022-10-23T11:57:11;16.20;99.90
35960;DHT22;22043;50.970;7.192;2022-10-23T12:02:30;16.20;99.90
35960;DHT22;22043;50.970;7.192;2022-10-23T12:04:57;16.30;99.90
35960;DHT22;22043;50.970;7.192;2022-10-23T12:07:31;16.30;99.90
35960;DHT22;22043;50.970;7.192;2022-10-23T12:09:58;16.30;99.90
35960;DHT22;22043;50.970;7.192;2022-10-23T12:12:32;16.30;99.90
35960;DHT22;22043;50.970;7.192;2022-10-23T12:17:42;16.30;99.90
35960;DHT22;22043;50.970;7.192;2022-10-23T12:30:47;16.40;99.90
35960;DHT22;22043;50.970;7.192;2022-10-23T12:38:45;16.50;99.90
35960;DHT22;22043;50.970;7.192;2022-10-23T12:41:18;16.50;99.90
35960;DHT22;22043;50.970;7.192;2022-10-23T12:44:00;16.50;99.90
35960;DHT22;22043;50.970;7.192;2022-10-23T12:46:34;16.50;99.90
35960;DHT22;22043;50.970;7.192;2022-10-23T12:49:13;16.60;99.90
35960;DHT22;22043;50.970;7.192;2022-10-23T12:51:39;16.60;99.90
35960;DHT22;22043;50.970;7.192;2022-10-23T12:54:15;16.60;99.90
35960;DHT22;22043;50.970;7.192;2022-10-23T12:56:41;16.60;99.90
35960;DHT22;22043;50.970;7.192;2022-10-23T12:59:18;16.50;99.90
35960;DHT22;22043;50.970;7.192;2022-10-23T13:01:45;16.50;99.90
35960;DHT22;22043;50.970;7.192;2022-10-23T13:04:20;16.60;99.90
35960;DHT22;22043;50.970;7.192;2022-10-23T13:06:49;16.60;99.90
35960;DHT22;22043;50.970;7.192;2022-10-23T13:09:29;16.60;99.90
35960;DHT22;22043;50.970;7.192;2022-10-23T13:12:25;16.60;99.90
35960;DHT22;22043;50.970;7.192;2022-10-23T13:15:14;16.60;99.90
35960;DHT22;22043;50.970;7.192;2022-10-23T13:17:41;16.60;99.90
35960;DHT22;22043;50.970;7.192;2022-10-23T13:20:31;16.60;99.90
35960;DHT22;22043;50.970;7.192;2022-10-23T13:26:05;16.60;99.90
35960;DHT22;22043;50.970;7.192;2022-10-23T13:28:42;16.60;99.90
35960;DHT22;22043;50.970;7.192;2022-10-23T13:33:38;16.60;99.90
35960;DHT22;22043;50.970;7.192;2022-10-23T13:38:40;16.60;99.90
35960;DHT22;22043;50.970;7.192;2022-10-23T13:41:16;16.60;99.90
35960;DHT22;22043;50.970;7.192;2022-10-23T13:43:43;16.60;99.90
35960;DHT22;22043;50.970;7.192;2022-10-23T13:46:23;16.60;99.90
35960;DHT22;22043;50.970;7.192;2022-10-23T13:48:51;16.60;99.90
35960;DHT22;22043;50.970;7.192;2022-10-23T13:51:28;16.60;99.90
35960;DHT22;22043;50.970;7.192;2022-10-23T13:53:55;16.60;99.90
35960;DHT22;22043;50.970;7.192;2022-10-23T13:56:23;16.60;99.90
35960;DHT22;22043;50.970;7.192;2022-10-23T13:58:49;16.60;99.90
35960;DHT22;22043;50.970;7.192;2022-10-23T14:01:26;16.60;99.90
35960;DHT22;22043;50.970;7.192;2022-10-23T14:03:53;16.60;99.90
35960;DHT22;22043;50.970;7.192;2022-10-23T14:06:19;16.60;99.90
35960;DHT22;22043;50.970;7.192;2022-10-23T14:08:45;16.60;99.90
35960;DHT22;22043;50.970;7.192;2022-10-23T14:11:12;16.60;99.90
35960;DHT22;22043;50.970;7.192;2022-10-23T14:13:38;16.60;99.90
35960;DHT22;22043;50.970;7.192;2022-10-23T14:16:04;16.60;99.90
35960;DHT22;22043;50.970;7.192;2022-10-23T14:18:30;16.60;99.90
35960;DHT22;22043;50.970;7.192;2022-10-23T14:21:02;16.60;99.90
35960;DHT22;22043;50.970;7.192;2022-10-23T14:23:28;16.60;99.90
35960;DHT22;22043;50.970;7.192;2022-10-23T14:26:01;16.60;99.90
35960;DHT22;22043;50.970;7.192;2022-10-23T14:28:26;16.60;99.90
35960;DHT22;22043;50.970;7.192;2022-10-23T14:30:52;16.60;99.90
35960;DHT22;22043;50.970;7.192;2022-10-23T14:33:17;16.50;99.90
35960;DHT22;22043;50.970;7.192;2022-10-23T14:35:43;16.60;99.90
35960;DHT22;22043;50.970;7.192;2022-10-23T14:38:09;16.60;99.90
35960;DHT22;22043;50.970;7.192;2022-10-23T14:40:38;16.60;99.90
35960;DHT22;22043;50.970;7.192;2022-10-23T14:43:04;16.60;99.90
35960;DHT22;22043;50.970;7.192;2022-10-23T14:45:30;16.60;99.90
35960;DHT22;22043;50.970;7.192;2022-10-23T14:47:55;16.60;99.90
35960;DHT22;22043;50.970;7.192;2022-10-23T14:50:21;16.60;99.90
35960;DHT22;22043;50.970;7.192;2022-10-23T14:52:47;16.60;99.90
35960;DHT22;22043;50.970;7.192;2022-10-23T14:55:12;16.60;99.90
35960;DHT22;22043;50.970;7.192;2022-10-23T14:57:38;16.60;99.90
35960;DHT22;22043;50.970;7.192;2022-10-23T15:00:05;16.50;99.90
35960;DHT22;22043;50.970;7.192;2022-10-23T15:02:32;16.60;99.90
35960;DHT22;22043;50.970;7.192;2022-10-23T15:04:58;16.60;99.90
35960;DHT22;22043;50.970;7.192;2022-10-23T15:07:23;16.50;99.90
35960;DHT22;22043;50.970;7.192;2022-10-23T15:09:49;16.50;99.90
35960;DHT22;22043;50.970;7.192;2022-10-23T15:12:16;16.50;99.90
35960;DHT22;22043;50.970;7.192;2022-10-23T15:14:42;16.50;99.90
35960;DHT22;22043;50.970;7.192;2022-10-23T15:17:08;16.50;99.90
35960;DHT22;22043;50.970;7.192;2022-10-23T15:19:33;16.50;99.90
35960;DHT22;22043;50.970;7.192;2022-10-23T15:21:59;16.50;99.90
35960;DHT22;22043;50.970;7.192;2022-10-23T15:24:25;16.50;99.90
35960;DHT22;22043;50.970;7.192;2022-10-23T15:26:51;16.50;99.90
35960;DHT22;22043;50.970;7.192;2022-10-23T15:29:17;16.50;99.90
35960;DHT22;22043;50.970;7.192;2022-10-23T15:32:00;16.50;99.90
35960;DHT22;22043;50.970;7.192;2022-10-23T15:34:27;16.50;99.90
35960;DHT22;22043;50.970;7.192;2022-10-23T15:36:54;16.50;99.90
35960;DHT22;22043;50.970;7.192;2022-10-23T15:39:23;16.50;99.90
35960;DHT22;22043;50.970;7.192;2022-10-23T15:41:52;16.50;99.90
35960;DHT22;22043;50.970;7.192;2022-10-23T15:44:19;16.50;99.90
35960;DHT22;22043;50.970;7.192;2022-10-23T15:46:46;16.50;99.90
35960;DHT22;22043;50.970;7.192;2022-10-23T15:49:12;16.50;99.90
35960;DHT22;22043;50.970;7.192;2022-10-23T15:51:38;16.40;99.90
35960;DHT22;22043;50.970;7.192;2022-10-23T15:54:05;16.40;99.90
35960;DHT22;22043;50.970;7.192;2022-10-23T15:56:32;16.40;99.90
35960;DHT22;22043;50.970;7.192;2022-10-23T15:58:58;16.40;99.90
35960;DHT22;22043;50.970;7.192;2022-10-23T16:01:24;16.40;99.90
35960;DHT22;22043;50.970;7.192;2022-10-23T16:03:49;16.40;99.90
35960;DHT22;22043;50.970;7.192;2022-10-23T16:06:16;16.40;99.90
35960;DHT22;22043;50.970;7.192;2022-10-23T16:08:43;16.40;99.90
35960;DHT22;22043;50.970;7.192;2022-10-23T16:11:18;16.40;99.90
35960;DHT22;22043;50.970;7.192;2022-10-23T16:13:44;16.40;99.90
35960;DHT22;22043;50.970;7.192;2022-10-23T16:16:11;16.30;99.90
35960;DHT22;22043;50.970;7.192;2022-10-23T16:18:37;16.30;99.90
35960;DHT22;22043;50.970;7.192;2022-10-23T16:21:03;16.30;99.90
35960;DHT22;22043;50.970;7.192;2022-10-23T16:23:28;16.30;99.90
35960;DHT22;22043;50.970;7.192;2022-10-23T16:25:54;16.30;99.90
35960;DHT22;22043;50.970;7.192;2022-10-23T16:28:20;16.30;99.90
35960;DHT22;22043;50.970;7.192;2022-10-23T16:30:46;16.30;99.90
35960;DHT22;22043;50.970;7.192;2022-10-23T16:33:12;16.20;99.90
35960;DHT22;22043;50.970;7.192;2022-10-23T16:35:37;16.20;99.90
35960;DHT22;22043;50.970;7.192;2022-10-23T16:38:12;16.10;99.90
35960;DHT22;22043;50.970;7.192;2022-10-23T16:40:38;16.20;99.90
35960;DHT22;22043;50.970;7.192;2022-10-23T16:43:37;16.10;99.90
35960;DHT22;22043;50.970;7.192;2022-10-23T16:46:12;16.10;99.90
35960;DHT22;22043;50.970;7.192;2022-10-23T16:48:40;16.10;99.90
35960;DHT22;22043;50.970;7.192;2022-10-23T16:51:07;16.00;99.90
35960;DHT22;22043;50.970;7.192;2022-10-23T16:53:34;16.00;99.90
35960;DHT22;22043;50.970;7.192;2022-10-23T16:56:03;15.90;99.90
35960;DHT22;22043;50.970;7.192;2022-10-23T16:58:29;15.90;99.90
35960;DHT22;22043;50.970;7.192;2022-10-23T17:01:18;15.90;99.90
35960;DHT22;22043;50.970;7.192;2022-10-23T17:03:46;15.90;99.90
35960;DHT22;22043;50.970;7.192;2022-10-23T17:06:14;15.80;99.90
35960;DHT22;22043;50.970;7.192;2022-10-23T17:08:41;15.80;99.90
35960;DHT22;22043;50.970;7.192;2022-10-23T17:13:35;15.70;99.90
35960;DHT22;22043;50.970;7.192;2022-10-23T17:16:10;15.70;99.90
35960;DHT22;22043;50.970;7.192;2022-10-23T17:18:38;15.70;99.90
35960;DHT22;22043;50.970;7.192;2022-10-23T17:21:04;15.70;99.90
35960;DHT22;22043;50.970;7.192;2022-10-23T17:23:31;15.70;99.90
35960;DHT22;22043;50.970;7.192;2022-10-23T17:25:57;15.70;99.90
35960;DHT22;22043;50.970;7.192;2022-10-23T17:28:23;15.60;99.90
35960;DHT22;22043;50.970;7.192;2022-10-23T17:30:50;15.60;99.90
35960;DHT22;22043;50.970;7.192;2022-10-23T17:33:16;15.60;99.90
35960;DHT22;22043;50.970;7.192;2022-10-23T17:35:42;15.60;99.90
35960;DHT22;22043;50.970;7.192;2022-10-23T17:38:10;15.60;99.90
35960;DHT22;22043;50.970;7.192;2022-10-23T17:40:36;15.60;99.90
35960;DHT22;22043;50.970;7.192;2022-10-23T17:43:02;15.60;99.90
35960;DHT22;22043;50.970;7.192;2022-10-23T17:45:29;15.60;99.90